Time;durP1;ratioP1;P1;durP2;ratioP2;P2;SDS_P1;SDS_P2;PMS_P1;PMS_P2;Temp;Humidity;BMP_temperature;BMP_pressure;BME280_temperature;BME280_humidity;BME280_pressure;Samples;Min_cycle;Max_cycle;Signal;HPM_P1;HPM_P2
2022/01/08 00:00:34;;;;;;;;;19.00;16.50;;;;;21.42;48.09;100519.45;113036;1242;19331;-72
2022/01/08 00:03:07;;;;;;;;;14.67;13.00;;;;;21.41;48.04;100522.85;112933;1242;18641;-71
2022/01/08 00:05:32;;;;;;;;;17.00;16.00;;;;;21.42;47.99;100518.78;112961;1242;18576;-71
2022/01/08 00:07:58;;;;;;;;;16.00;13.00;;;;;21.40;47.91;100513.67;113019;1242;22231;-71
2022/01/08 00:10:24;;;;;;;;;15.00;14.00;;;;;21.40;48.07;100515.85;113060;1242;22244;-72
2022/01/08 00:12:51;;;;;;;;;14.00;12.00;;;;;21.41;48.09;100519.98;112789;1242;19565;-72
2022/01/08 00:15:17;;;;;;;;;13.33;12.00;;;;;21.41;47.93;100523.97;113030;1242;19559;-74
2022/01/08 00:17:44;;;;;;;;;13.67;13.00;;;;;21.41;48.02;100520.70;113087;1242;20057;-71
2022/01/08 00:20:09;;;;;;;;;16.00;13.00;;;;;21.41;47.94;100523.63;112938;1242;18666;-71
2022/01/08 00:22:35;;;;;;;;;16.00;16.00;;;;;21.41;48.13;100523.96;112893;1242;19915;-71
2022/01/08 00:25:01;;;;;;;;;14.00;13.00;;;;;21.41;47.98;100522.16;112996;1242;18436;-71
2022/01/08 00:27:27;;;;;;;;;14.00;13.00;;;;;21.41;48.13;100518.55;113040;1242;18559;-72
2022/01/08 00:29:53;;;;;;;;;16.00;13.00;;;;;21.41;48.09;100520.86;113054;1242;19060;-71
2022/01/08 00:32:19;;;;;;;;;16.00;13.00;;;;;21.41;48.10;100520.86;113047;1241;18593;-72
2022/01/08 00:34:45;;;;;;;;;12.50;12.50;;;;;21.42;48.02;100521.17;113080;1242;19172;-71
2022/01/08 00:37:10;;;;;;;;;13.50;13.00;;;;;21.41;48.20;100516.55;113071;1242;20277;-71
2022/01/08 00:39:37;;;;;;;;;14.00;13.00;;;;;21.42;47.96;100519.12;113047;1242;18658;-71
2022/01/08 00:42:03;;;;;;;;;17.00;14.00;;;;;21.41;47.91;100515.83;112873;1242;18871;-71
2022/01/08 00:44:29;;;;;;;;;18.00;17.00;;;;;21.40;47.82;100516.09;113014;1242;19184;-71
2022/01/08 00:46:54;;;;;;;;;12.00;12.00;;;;;21.40;47.83;100510.52;113047;1242;19122;-71
2022/01/08 00:49:20;;;;;;;;;15.00;13.00;;;;;21.39;47.94;100510.41;113075;1242;18469;-72
2022/01/08 00:51:46;;;;;;;;;13.00;12.50;;;;;21.38;47.98;100506.93;113064;1242;20026;-74
2022/01/08 00:54:12;;;;;;;;;15.00;12.00;;;;;21.40;47.97;100512.35;113014;1242;18625;-70
2022/01/08 00:56:38;;;;;;;;;15.00;13.00;;;;;21.40;47.96;100509.38;112946;1242;18637;-71
2022/01/08 00:59:04;;;;;;;;;14.00;14.00;;;;;21.39;47.88;100509.45;112951;1242;21442;-71
2022/01/08 01:01:30;;;;;;;;;14.67;14.67;;;;;21.39;48.06;100504.41;113014;1242;18790;-71
2022/01/08 01:03:56;;;;;;;;;16.50;13.50;;;;;21.40;48.03;100503.90;112976;1242;22945;-71
2022/01/08 01:06:23;;;;;;;;;16.00;14.00;;;;;21.40;48.09;100500.48;113088;1242;19261;-71
2022/01/08 01:08:49;;;;;;;;;14.00;13.67;;;;;21.40;48.16;100501.23;113005;1242;22089;-70
2022/01/08 01:11:14;;;;;;;;;15.00;13.00;;;;;21.39;48.06;100500.77;113115;1242;19981;-71
2022/01/08 01:13:40;;;;;;;;;13.33;12.33;;;;;21.38;47.82;100495.77;113113;1242;19503;-70
2022/01/08 01:16:06;;;;;;;;;14.00;13.00;;;;;21.39;47.90;100496.06;113015;1242;18530;-73
2022/01/08 01:18:33;;;;;;;;;13.50;12.50;;;;;21.38;47.96;100493.25;113029;1242;18522;-72
2022/01/08 01:20:59;;;;;;;;;16.00;14.00;;;;;21.38;48.09;100495.60;112976;1242;19398;-72
2022/01/08 01:23:30;;;;;;;;;13.50;13.00;;;;;21.38;47.98;100488.73;113051;1242;18743;-72
2022/01/08 01:26:00;;;;;;;;;13.00;12.00;;;;;21.42;47.94;100482.11;112978;1242;20487;-72
2022/01/08 01:28:38;;;;;;;;;14.67;12.00;;;;;21.43;47.68;100477.64;113002;1242;19449;-71
2022/01/08 01:42:20;;;;;;;;;13.00;13.00;;;;;21.42;47.81;100472.39;112988;1242;18735;-71
2022/01/08 01:47:32;;;;;;;;;13.67;13.00;;;;;21.41;47.86;100471.86;113078;1242;19258;-71
2022/01/08 01:49:57;;;;;;;;;13.00;12.00;;;;;21.40;48.05;100466.30;113081;1242;21286;-71
2022/01/08 01:52:23;;;;;;;;;17.00;14.00;;;;;21.39;47.81;100460.24;113045;1242;19566;-70
2022/01/08 01:54:49;;;;;;;;;13.50;12.00;;;;;21.39;48.04;100458.65;113088;1242;19073;-71
2022/01/08 01:57:16;;;;;;;;;13.50;13.00;;;;;21.38;48.00;100457.64;113075;1242;19098;-71
2022/01/08 01:59:42;;;;;;;;;13.33;12.67;;;;;21.38;47.99;100456.89;113041;1241;19592;-71
2022/01/08 02:02:09;;;;;;;;;12.00;10.00;;;;;21.38;47.70;100453.95;113096;1242;20302;-71
2022/01/08 02:04:34;;;;;;;;;14.00;13.00;;;;;21.38;47.90;100447.32;113091;1242;21231;-72
2022/01/08 02:07:00;;;;;;;;;17.00;15.00;;;;;21.34;48.08;100442.99;113098;1242;19972;-71
2022/01/08 02:09:28;;;;;;;;;10.00;10.00;;;;;21.36;47.74;100444.21;113086;1242;18912;-71
2022/01/08 02:11:53;;;;;;;;;13.00;10.00;;;;;21.36;47.96;100442.48;113072;1242;18469;-71
2022/01/08 02:14:19;;;;;;;;;12.00;10.00;;;;;21.37;47.75;100441.52;113051;1242;23206;-71
2022/01/08 02:16:45;;;;;;;;;13.00;12.00;;;;;21.37;48.01;100438.13;113007;1242;19022;-70
2022/01/08 02:19:11;;;;;;;;;16.00;12.00;;;;;21.36;47.83;100442.02;112983;1242;21023;-70
2022/01/08 02:21:37;;;;;;;;;13.00;13.00;;;;;21.36;47.66;100437.86;113026;1242;20007;-70
2022/01/08 02:24:03;;;;;;;;;14.00;13.00;;;;;21.34;47.90;100437.73;112974;1242;19114;-70
2022/01/08 02:26:28;;;;;;;;;12.00;12.00;;;;;21.37;47.74;100441.95;113037;1242;20159;-71
2022/01/08 02:28:54;;;;;;;;;11.00;10.00;;;;;21.38;47.84;100438.77;113082;1242;19343;-71
2022/01/08 02:31:20;;;;;;;;;16.00;14.00;;;;;21.36;47.66;100435.52;113046;1242;18602;-71
2022/01/08 02:33:46;;;;;;;;;11.00;10.00;;;;;21.35;47.82;100434.13;113010;1242;20499;-71
2022/01/08 02:36:12;;;;;;;;;14.00;12.00;;;;;21.36;47.91;100431.35;112987;1242;19205;-71
2022/01/08 02:38:38;;;;;;;;;17.00;13.00;;;;;21.34;47.76;100430.95;112988;1242;18442;-70
2022/01/08 02:41:06;;;;;;;;;12.67;12.33;;;;;21.36;47.84;100431.16;112968;1242;20104;-71
2022/01/08 02:43:39;;;;;;;;;10.00;10.00;;;;;21.36;47.70;100427.76;113021;1242;19526;-72
2022/01/08 02:46:05;;;;;;;;;12.00;11.33;;;;;21.35;47.77;100423.09;113000;1242;22029;-71
2022/01/08 02:48:31;;;;;;;;;14.00;13.00;;;;;21.35;47.70;100420.91;113031;1240;18789;-71
2022/01/08 02:50:57;;;;;;;;;13.00;12.00;;;;;21.35;47.71;100422.75;113073;1242;19479;-72
2022/01/08 02:53:23;;;;;;;;;12.00;10.00;;;;;21.34;47.72;100426.46;113084;1242;18442;-71
2022/01/08 02:55:49;;;;;;;;;13.50;13.00;;;;;21.34;47.69;100427.76;113093;1242;18608;-70
2022/01/08 02:58:14;;;;;;;;;10.00;10.00;;;;;21.33;47.91;100423.17;113001;1242;19732;-73
2022/01/08 03:00:40;;;;;;;;;13.00;12.00;;;;;21.33;47.64;100424.73;112996;1242;18618;-72
2022/01/08 03:03:06;;;;;;;;;16.00;13.00;;;;;21.34;47.79;100427.38;112999;1242;18576;-71
2022/01/08 03:05:32;;;;;;;;;12.00;10.00;;;;;21.34;47.60;100429.39;113037;1242;19970;-73
2022/01/08 03:07:58;;;;;;;;;13.00;12.00;;;;;21.33;47.87;100425.11;113016;1242;19933;-72
2022/01/08 03:10:24;;;;;;;;;12.00;10.00;;;;;21.32;47.63;100420.11;112998;1242;18863;-73
2022/01/08 03:12:50;;;;;;;;;12.00;10.00;;;;;21.33;47.81;100420.20;113071;1242;19934;-72
2022/01/08 03:15:15;;;;;;;;;14.00;12.00;;;;;21.33;47.74;100415.91;113077;1242;18423;-73
2022/01/08 03:17:41;;;;;;;;;12.00;10.00;;;;;21.33;47.66;100414.11;113025;1242;18534;-70
2022/01/08 03:20:10;;;;;;;;;10.00;10.00;;;;;21.32;47.75;100411.42;112944;1242;21057;-72
2022/01/08 03:22:36;;;;;;;;;9.33;9.33;;;;;21.32;47.56;100405.84;113034;1242;22656;-73
2022/01/08 03:25:02;;;;;;;;;9.50;9.50;;;;;21.32;47.67;100403.41;113076;1242;18911;-72
2022/01/08 03:27:28;;;;;;;;;17.00;13.00;;;;;21.33;47.60;100398.64;113104;1242;19154;-72
2022/01/08 03:29:54;;;;;;;;;12.00;12.00;;;;;21.34;47.69;100397.80;113008;1242;19545;-72
2022/01/08 03:32:19;;;;;;;;;13.50;10.00;;;;;21.32;47.53;100396.48;113049;1242;18672;-74
2022/01/08 03:34:45;;;;;;;;;10.00;10.00;;;;;21.33;47.72;100397.00;113049;1242;19279;-73
2022/01/08 03:37:11;;;;;;;;;9.00;9.00;;;;;21.31;47.72;100393.75;113108;1242;19284;-72
2022/01/08 03:39:37;;;;;;;;;12.00;9.00;;;;;21.32;47.72;100390.37;113139;1242;18559;-73
2022/01/08 03:42:03;;;;;;;;;12.00;10.00;;;;;21.33;47.65;100389.20;113097;1242;23150;-72
2022/01/08 03:44:31;;;;;;;;;9.50;9.00;;;;;21.31;47.48;100383.69;113022;1242;18604;-73
2022/01/08 03:47:21;;;;;;;;;12.00;12.00;;;;;21.31;47.58;100382.27;113111;1242;18999;-72
2022/01/08 03:49:43;;;;;;;;;12.50;10.00;;;;;21.32;47.69;100380.76;113072;1242;19761;-74
2022/01/08 03:52:09;;;;;;;;;12.50;9.50;;;;;21.31;47.68;100380.80;113077;1242;18587;-73
2022/01/08 03:54:35;;;;;;;;;10.00;10.00;;;;;21.32;47.57;100378.89;113098;1242;19449;-73
2022/01/08 03:57:00;;;;;;;;;11.00;10.00;;;;;21.32;47.67;100373.71;113080;1242;19263;-72
2022/01/08 03:59:26;;;;;;;;;10.00;10.00;;;;;21.32;47.47;100376.73;113093;1242;23879;-74
2022/01/08 04:01:52;;;;;;;;;11.00;9.50;;;;;21.31;47.41;100368.85;112996;1242;20241;-72
2022/01/08 04:04:18;;;;;;;;;10.00;9.00;;;;;21.30;47.57;100365.19;113013;1242;22250;-73
2022/01/08 04:06:44;;;;;;;;;11.00;10.00;;;;;21.31;47.49;100366.88;112990;1242;18881;-72
2022/01/08 04:09:10;;;;;;;;;9.00;9.00;;;;;21.30;47.44;100373.70;112959;1242;18616;-72
2022/01/08 04:11:36;;;;;;;;;11.00;10.00;;;;;21.31;47.54;100373.42;113006;1242;23532;-73
2022/01/08 04:14:01;;;;;;;;;10.00;10.00;;;;;21.30;47.74;100373.49;113008;1242;19889;-71
2022/01/08 04:16:31;;;;;;;;;16.00;13.00;;;;;21.30;47.50;100370.52;113003;1242;18632;-72
2022/01/08 04:18:57;;;;;;;;;13.33;12.00;;;;;21.31;47.61;100368.00;112996;1241;19831;-71
2022/01/08 04:24:07;;;;;;;;;9.00;8.00;;;;;21.29;47.53;100367.83;113095;1242;20014;-71
2022/01/08 04:26:33;;;;;;;;;12.50;10.00;;;;;21.30;47.45;100367.36;113068;1242;19855;-71
2022/01/08 04:28:59;;;;;;;;;8.50;8.00;;;;;21.30;47.60;100359.06;113061;1242;18244;-73
2022/01/08 04:31:25;;;;;;;;;12.00;11.00;;;;;21.30;47.47;100360.87;113067;1242;20436;-73
2022/01/08 04:33:51;;;;;;;;;10.00;10.00;;;;;21.29;47.52;100358.00;113118;1242;19342;-72
2022/01/08 04:36:17;;;;;;;;;12.50;11.00;;;;;21.29;47.33;100355.35;113088;1242;18735;-70
2022/01/08 04:38:42;;;;;;;;;8.00;8.00;;;;;21.29;47.36;100354.75;112969;1242;22184;-72
2022/01/08 04:41:08;;;;;;;;;7.00;7.00;;;;;21.30;47.41;100348.37;113010;1242;19220;-71
2022/01/08 04:43:37;;;;;;;;;12.00;9.00;;;;;21.29;47.47;100345.86;113000;1242;18442;-71
2022/01/08 04:46:03;;;;;;;;;10.67;9.67;;;;;21.29;47.34;100346.84;113030;1241;20581;-73
2022/01/08 04:48:29;;;;;;;;;13.00;12.50;;;;;21.29;47.44;100349.52;113090;1241;19323;-73
2022/01/08 04:50:55;;;;;;;;;9.00;9.00;;;;;21.28;47.33;100347.72;113091;1242;22974;-72
2022/01/08 04:53:20;;;;;;;;;12.00;12.00;;;;;21.28;47.54;100345.20;113036;1241;19867;-71
2022/01/08 04:55:46;;;;;;;;;10.00;9.00;;;;;21.29;47.55;100345.87;112988;1242;20482;-71
2022/01/08 04:58:12;;;;;;;;;9.00;8.00;;;;;21.29;47.31;100345.86;112991;1242;18361;-71
2022/01/08 05:00:39;;;;;;;;;10.00;9.50;;;;;21.28;47.57;100343.77;113059;1242;18774;-71
2022/01/08 05:03:04;;;;;;;;;9.67;9.00;;;;;21.29;47.43;100345.66;112976;1242;21494;-72
2022/01/08 05:05:30;;;;;;;;;14.00;10.00;;;;;21.29;47.51;100345.90;113071;1242;18772;-71
2022/01/08 05:07:56;;;;;;;;;10.00;9.00;;;;;21.28;47.31;100340.55;113096;1241;18519;-73
2022/01/08 05:10:22;;;;;;;;;10.00;10.00;;;;;21.28;47.45;100340.91;113108;1242;22912;-72
2022/01/08 05:12:48;;;;;;;;;9.50;9.50;;;;;21.28;47.43;100338.12;113098;1242;18661;-72
2022/01/08 05:15:15;;;;;;;;;10.00;9.00;;;;;21.28;47.40;100341.64;112983;1242;18391;-73
2022/01/08 05:17:43;;;;;;;;;12.00;10.00;;;;;21.27;47.46;100341.13;112975;1241;19363;-71
2022/01/08 05:20:09;;;;;;;;;9.67;9.00;;;;;21.28;47.29;100344.39;113048;1242;20075;-72
2022/01/08 05:22:49;;;;;;;;;8.00;8.00;;;;;21.27;47.33;100341.69;113097;1242;19222;-72
2022/01/08 05:25:15;;;;;;;;;9.50;9.50;;;;;21.28;47.38;100344.35;113015;1242;19416;-71
2022/01/08 05:27:41;;;;;;;;;12.00;9.00;;;;;21.28;47.21;100343.64;113025;1242;18570;-69
2022/01/08 05:30:07;;;;;;;;;9.50;9.00;;;;;21.27;47.45;100348.66;113037;1242;18429;-70
2022/01/08 05:32:32;;;;;;;;;9.00;9.00;;;;;21.27;47.43;100349.04;113025;1242;20696;-70
2022/01/08 05:34:58;;;;;;;;;9.00;9.00;;;;;21.27;47.30;100343.00;113074;1242;19906;-72
2022/01/08 05:37:24;;;;;;;;;10.00;10.00;;;;;21.27;47.21;100340.48;113060;1242;18492;-73
2022/01/08 05:39:51;;;;;;;;;9.50;9.00;;;;;21.27;47.10;100339.36;113065;1242;19252;-70
2022/01/08 05:42:17;;;;;;;;;9.67;9.00;;;;;21.26;47.32;100335.27;113126;1242;18627;-71
2022/01/08 05:44:43;;;;;;;;;12.00;9.00;;;;;21.26;47.33;100331.63;113073;1242;20150;-71
2022/01/08 05:47:09;;;;;;;;;12.00;12.00;;;;;21.24;47.46;100324.67;113079;1242;19888;-71
2022/01/08 05:49:34;;;;;;;;;9.50;8.50;;;;;21.26;47.35;100322.82;113111;1242;18413;-71
2022/01/08 05:52:00;;;;;;;;;14.00;13.00;;;;;21.26;47.29;100324.63;113076;1242;18736;-74
2022/01/08 05:54:26;;;;;;;;;10.00;9.50;;;;;21.27;47.15;100326.14;113045;1242;23369;-71
2022/01/08 05:56:52;;;;;;;;;10.50;9.50;;;;;21.27;47.39;100328.11;113012;1242;21094;-72
2022/01/08 05:59:18;;;;;;;;;9.00;8.00;;;;;21.27;47.37;100326.52;113079;1242;19310;-72
2022/01/08 06:01:44;;;;;;;;;11.00;9.50;;;;;21.26;47.32;100327.06;113060;1242;19210;-71
2022/01/08 06:04:10;;;;;;;;;10.00;10.00;;;;;21.26;47.41;100335.07;113069;1242;21086;-71
2022/01/08 06:06:35;;;;;;;;;10.00;8.50;;;;;21.28;47.31;100338.91;113001;1242;22297;-71
2022/01/08 06:09:01;;;;;;;;;9.00;9.00;;;;;21.27;47.33;100339.65;113008;1242;21794;-73
2022/01/08 06:11:27;;;;;;;;;9.50;9.00;;;;;21.26;47.36;100342.87;112987;1241;18556;-71
2022/01/08 06:13:53;;;;;;;;;11.00;9.00;;;;;21.27;47.22;100348.63;112989;1242;22963;-71
2022/01/08 06:16:19;;;;;;;;;8.00;8.00;;;;;21.27;47.33;100350.80;112987;1242;22995;-71
2022/01/08 06:18:45;;;;;;;;;13.00;10.00;;;;;21.27;47.26;100351.42;113021;1242;20197;-72
2022/01/08 06:21:10;;;;;;;;;9.50;8.00;;;;;21.27;47.37;100354.11;113045;1242;18531;-71
2022/01/08 06:23:36;;;;;;;;;8.50;8.00;;;;;21.27;47.05;100354.99;113054;1241;19970;-71
2022/01/08 06:26:02;;;;;;;;;8.00;8.00;;;;;21.27;47.42;100352.30;113068;1242;21956;-71
2022/01/08 06:28:28;;;;;;;;;12.00;9.00;;;;;21.27;47.39;100348.80;113094;1242;18576;-73
2022/01/08 06:30:54;;;;;;;;;9.00;9.00;;;;;21.26;47.22;100348.53;113102;1242;19811;-71
2022/01/08 06:33:20;;;;;;;;;12.00;9.50;;;;;21.24;47.12;100344.48;112982;1242;19310;-70
2022/01/08 06:35:46;;;;;;;;;9.00;8.50;;;;;21.26;47.32;100348.27;112978;1241;18520;-69
2022/01/08 06:38:11;;;;;;;;;10.00;9.00;;;;;21.26;47.11;100351.42;112958;1241;19041;-70
2022/01/08 06:40:37;;;;;;;;;8.00;8.00;;;;;21.27;47.25;100360.11;112982;1241;18362;-71
2022/01/08 06:43:03;;;;;;;;;9.00;9.00;;;;;21.27;47.28;100356.84;112991;1242;18443;-70
2022/01/08 06:45:29;;;;;;;;;10.00;9.50;;;;;21.27;47.31;100356.50;113033;1242;19294;-71
2022/01/08 06:47:55;;;;;;;;;10.00;9.00;;;;;21.26;47.31;100351.09;113009;1242;18620;-70
2022/01/08 06:50:21;;;;;;;;;8.00;8.00;;;;;21.26;47.31;100350.95;113053;1242;18488;-71
2022/01/08 06:52:47;;;;;;;;;10.00;9.00;;;;;21.27;47.02;100353.20;113028;1242;19476;-72
2022/01/08 06:55:12;;;;;;;;;9.00;8.00;;;;;21.26;47.37;100347.34;113043;1242;18250;-72
2022/01/08 06:57:38;;;;;;;;;9.00;8.50;;;;;21.26;47.12;100346.22;113023;1242;18489;-70
2022/01/08 07:00:04;;;;;;;;;10.00;8.00;;;;;21.26;47.13;100347.48;112975;1242;19348;-71
2022/01/08 07:02:30;;;;;;;;;12.00;9.50;;;;;21.26;47.36;100351.84;113066;1242;22410;-71
2022/01/08 07:04:56;;;;;;;;;11.00;8.00;;;;;21.26;47.16;100357.33;113083;1242;20503;-71
2022/01/08 07:07:22;;;;;;;;;10.00;10.00;;;;;21.27;47.08;100354.41;113064;1242;19813;-71
2022/01/08 07:09:48;;;;;;;;;11.00;10.00;;;;;21.29;47.18;100351.63;113055;1242;19141;-72
2022/01/08 07:12:13;;;;;;;;;9.00;9.00;;;;;21.36;47.13;100357.95;112990;1241;18657;-73
2022/01/08 07:14:39;;;;;;;;;10.00;10.00;;;;;21.41;47.32;100355.17;113004;1242;19228;-73
2022/01/08 07:17:05;;;;;;;;;8.50;8.50;;;;;21.38;47.38;100348.21;112976;1242;18792;-73
2022/01/08 07:19:31;;;;;;;;;9.50;9.00;;;;;21.40;47.65;100358.34;113064;1242;18738;-73
2022/01/08 07:21:59;;;;;;;;;6.00;6.00;;;;;21.37;47.98;100357.94;113012;1242;19155;-70
2022/01/08 07:24:25;;;;;;;;;12.67;10.00;;;;;21.36;47.99;100365.92;113000;1242;18619;-73
2022/01/08 07:26:51;;;;;;;;;10.00;9.00;;;;;21.32;47.91;100355.85;113079;1242;18696;-72
2022/01/08 07:29:16;;;;;;;;;9.00;8.50;;;;;21.30;48.06;100355.34;113085;1242;22300;-71
2022/01/08 07:31:42;;;;;;;;;12.00;10.00;;;;;21.29;47.96;100354.63;113073;1242;19050;-71
2022/01/08 07:34:08;;;;;;;;;11.00;10.00;;;;;21.29;47.41;100353.90;112983;1241;18566;-71
2022/01/08 07:36:34;;;;;;;;;12.67;10.00;;;;;21.30;47.25;100356.04;112946;1242;20125;-72
2022/01/08 07:39:00;;;;;;;;;10.00;10.00;;;;;21.33;47.45;100355.35;112922;1242;18953;-70
2022/01/08 07:41:26;;;;;;;;;12.00;12.00;;;;;21.36;47.28;100359.35;113005;1242;18751;-71
2022/01/08 07:43:54;;;;;;;;;10.00;10.00;;;;;21.45;47.29;100357.91;113001;1242;20008;-71
2022/01/08 07:46:20;;;;;;;;;13.33;12.33;;;;;21.52;47.39;100365.38;112994;1242;20294;-72
2022/01/08 07:48:45;;;;;;;;;11.00;10.00;;;;;21.56;47.66;100368.52;113017;1241;23803;-70
2022/01/08 07:51:11;;;;;;;;;10.00;10.00;;;;;21.60;48.12;100363.70;112979;1242;19133;-71
2022/01/08 07:53:37;;;;;;;;;13.50;12.50;;;;;21.62;48.07;100364.87;113096;1242;18445;-72
2022/01/08 07:56:03;;;;;;;;;14.00;13.00;;;;;21.62;48.40;100361.93;113025;1242;18464;-72
2022/01/08 07:58:29;;;;;;;;;9.00;9.00;;;;;21.65;48.56;100363.80;113003;1242;19600;-72
2022/01/08 08:00:55;;;;;;;;;13.50;12.50;;;;;21.65;48.54;100365.82;112997;1242;18387;-72
2022/01/08 08:03:21;;;;;;;;;15.00;12.00;;;;;21.62;48.78;100363.18;113039;1242;22882;-72
2022/01/08 08:05:47;;;;;;;;;20.50;16.00;;;;;21.63;48.61;100368.42;113090;1242;19156;-71
2022/01/08 08:08:12;;;;;;;;;14.00;13.00;;;;;21.62;48.46;100365.41;113083;1242;18784;-72
2022/01/08 08:10:38;;;;;;;;;14.00;13.00;;;;;21.61;48.58;100364.98;113090;1241;18597;-72
2022/01/08 08:13:04;;;;;;;;;12.00;12.00;;;;;21.61;49.10;100366.24;113025;1242;22804;-72
2022/01/08 08:15:30;;;;;;;;;14.00;13.00;;;;;21.63;49.86;100364.20;113009;1242;19451;-73
2022/01/08 08:17:56;;;;;;;;;18.00;16.00;;;;;21.64;50.20;100359.55;113013;1242;18412;-74
2022/01/08 08:20:22;;;;;;;;;15.00;12.00;;;;;21.62;50.75;100353.05;112986;1242;19216;-75
2022/01/08 08:22:48;;;;;;;;;16.33;14.67;;;;;21.62;51.25;100364.15;113034;1242;22909;-72
2022/01/08 08:25:14;;;;;;;;;16.00;14.00;;;;;21.64;52.20;100361.70;112936;1242;18881;-72
2022/01/08 08:27:40;;;;;;;;;23.00;16.50;;;;;21.68;53.09;100361.67;112976;1242;22030;-74
2022/01/08 08:30:06;;;;;;;;;18.00;14.00;;;;;21.74;53.09;100363.20;113031;1242;18623;-74
2022/01/08 08:32:32;;;;;;;;;20.00;16.00;;;;;21.76;52.95;100363.61;112984;1242;18657;-73
2022/01/08 08:34:57;;;;;;;;;20.50;16.50;;;;;21.79;52.75;100360.28;112968;1242;19725;-73
2022/01/08 08:37:23;;;;;;;;;17.50;14.00;;;;;21.79;52.40;100359.11;112945;1242;18487;-74
2022/01/08 08:39:49;;;;;;;;;18.50;18.00;;;;;21.78;52.57;100361.16;112997;1240;18549;-73
2022/01/08 08:42:15;;;;;;;;;14.00;13.00;;;;;21.75;52.74;100351.01;112940;1242;20098;-72
2022/01/08 08:44:41;;;;;;;;;16.00;14.50;;;;;21.75;52.15;100350.48;112954;1242;19390;-72
2022/01/08 08:47:07;;;;;;;;;14.50;14.50;;;;;21.77;51.92;100349.55;113000;1242;18733;-76
2022/01/08 08:49:33;;;;;;;;;18.00;15.00;;;;;21.78;51.41;100353.56;112977;1242;19967;-75
2022/01/08 08:51:59;;;;;;;;;18.00;17.00;;;;;21.75;51.11;100348.45;113020;1242;22918;-73
2022/01/08 08:54:25;;;;;;;;;19.00;18.00;;;;;21.78;50.48;100350.58;112978;1242;18701;-74
2022/01/08 08:56:51;;;;;;;;;21.00;18.00;;;;;21.78;50.19;100351.00;112991;1242;19827;-72
2022/01/08 08:59:16;;;;;;;;;21.00;18.00;;;;;21.78;50.24;100352.88;112978;1242;21756;-73
2022/01/08 09:01:42;;;;;;;;;18.00;17.00;;;;;21.74;50.21;100351.57;112998;1242;22307;-73
2022/01/08 09:04:08;;;;;;;;;22.00;17.00;;;;;21.72;50.14;100351.77;112986;1242;19233;-73
2022/01/08 09:06:34;;;;;;;;;22.00;18.00;;;;;21.75;50.13;100351.24;112972;1242;22389;-73
2022/01/08 09:09:00;;;;;;;;;17.00;17.00;;;;;21.76;49.79;100352.02;112953;1242;19892;-73
2022/01/08 09:11:26;;;;;;;;;21.50;20.00;;;;;21.73;49.77;100345.61;112960;1242;19294;-74
2022/01/08 09:13:52;;;;;;;;;22.00;18.00;;;;;21.68;49.70;100336.70;112959;1242;19299;-72
2022/01/08 09:16:17;;;;;;;;;23.00;21.00;;;;;21.68;49.79;100339.55;112912;1242;21536;-73
2022/01/08 09:18:43;;;;;;;;;28.50;23.50;;;;;21.73;49.78;100338.89;112921;1242;23115;-73
2022/01/08 09:21:09;;;;;;;;;21.50;21.00;;;;;21.72;49.67;100340.52;112916;1242;19040;-72
2022/01/08 09:23:35;;;;;;;;;19.00;16.50;;;;;21.76;49.82;100341.86;112988;1242;18572;-73
2022/01/08 09:26:01;;;;;;;;;25.00;20.67;;;;;21.77;49.67;100338.81;112953;1242;21000;-72
2022/01/08 09:28:27;;;;;;;;;40.00;31.00;;;;;21.76;49.45;100333.81;112955;1242;18394;-71
2022/01/08 09:30:54;;;;;;;;;32.00;26.00;;;;;21.79;49.54;100334.00;112990;1242;19032;-72
2022/01/08 09:33:20;;;;;;;;;46.00;39.00;;;;;21.82;49.58;100330.06;112938;1242;19190;-74
2022/01/08 09:35:46;;;;;;;;;53.50;42.00;;;;;21.84;49.69;100327.15;112910;1242;19005;-71
2022/01/08 09:38:12;;;;;;;;;45.00;40.00;;;;;21.86;49.51;100333.66;112926;1242;25281;-72
2022/01/08 09:40:37;;;;;;;;;40.00;34.00;;;;;21.84;49.22;100333.48;112967;1242;19642;-74
2022/01/08 09:43:03;;;;;;;;;58.00;42.00;;;;;21.79;49.38;100332.02;113016;1241;18389;-71
2022/01/08 09:45:29;;;;;;;;;49.00;41.50;;;;;21.73;49.18;100334.73;112951;1242;19094;-71
2022/01/08 09:47:55;;;;;;;;;50.00;42.00;;;;;21.66;49.31;100338.69;112975;1242;19562;-71
2022/01/08 09:50:21;;;;;;;;;50.50;40.00;;;;;21.64;48.88;100340.27;112984;1242;18660;-70
2022/01/08 09:52:47;;;;;;;;;50.50;39.50;;;;;21.63;48.93;100345.36;112979;1242;18675;-71
2022/01/08 09:55:13;;;;;;;;;52.50;43.50;;;;;21.64;48.92;100342.64;112960;1242;19457;-71
2022/01/08 09:57:38;;;;;;;;;53.00;40.00;;;;;21.59;48.78;100342.13;112972;1242;23443;-73
2022/01/08 10:00:04;;;;;;;;;48.00;39.00;;;;;21.64;49.18;100343.33;112990;1242;19291;-75
2022/01/08 10:02:30;;;;;;;;;61.67;44.67;;;;;21.65;48.83;100341.92;113003;1242;19359;-77
2022/01/08 10:04:56;;;;;;;;;56.67;42.00;;;;;21.67;48.84;100338.04;112993;1242;18604;-75
2022/01/08 10:07:22;;;;;;;;;45.00;39.00;;;;;21.66;48.88;100334.20;112971;1242;18519;-74
2022/01/08 10:09:48;;;;;;;;;58.00;41.50;;;;;21.62;47.21;100330.67;112977;1242;23027;-73
2022/01/08 10:12:14;;;;;;;;;48.67;42.00;;;;;21.61;47.48;100333.71;112980;1242;18626;-73
2022/01/08 10:17:13;;;;;;;;;56.00;43.00;;;;;21.56;47.34;100332.87;112998;1242;18624;-76
2022/01/08 10:17:25;;;;;;;;;48.00;40.00;;;;;21.55;48.03;100333.70;112983;1242;19376;-75
2022/01/08 10:19:51;;;;;;;;;47.50;39.00;;;;;21.53;48.46;100324.13;113036;1242;18575;-75
2022/01/08 10:22:19;;;;;;;;;45.00;40.00;;;;;21.52;48.50;100324.83;113050;1242;18955;-75
2022/01/08 10:24:45;;;;;;;;;47.33;37.67;;;;;21.52;48.59;100323.76;113083;1242;19798;-75
2022/01/08 10:27:11;;;;;;;;;44.50;37.50;;;;;21.51;48.34;100323.29;112958;1242;22319;-75
2022/01/08 10:29:37;;;;;;;;;44.00;37.00;;;;;21.50;48.45;100325.83;113000;1242;21862;-77
2022/01/08 10:32:02;;;;;;;;;46.50;41.50;;;;;21.49;48.36;100320.84;112961;1242;19224;-76
2022/01/08 10:34:29;;;;;;;;;48.00;39.50;;;;;21.47;48.54;100319.95;112999;1242;18419;-75
2022/01/08 10:36:54;;;;;;;;;51.67;41.33;;;;;21.47;48.42;100316.36;112983;1242;18787;-75
2022/01/08 10:39:20;;;;;;;;;47.50;40.00;;;;;21.46;48.30;100318.27;112941;1242;19262;-76
2022/01/08 10:41:46;;;;;;;;;46.50;39.50;;;;;21.44;48.24;100314.19;112990;1242;18391;-76
2022/01/08 10:44:12;;;;;;;;;54.00;38.00;;;;;21.44;48.32;100306.21;113024;1242;19861;-76
2022/01/08 10:46:38;;;;;;;;;46.00;38.00;;;;;21.44;48.40;100307.18;113003;1242;19983;-77
2022/01/08 10:49:04;;;;;;;;;48.50;40.00;;;;;21.42;48.58;100302.77;113026;1242;18557;-74
2022/01/08 10:51:30;;;;;;;;;56.00;40.00;;;;;21.42;48.39;100298.70;112997;1242;18738;-74
2022/01/08 10:53:56;;;;;;;;;41.00;35.50;;;;;21.42;48.29;100296.64;113010;1242;19419;-75
2022/01/08 10:56:21;;;;;;;;;38.50;36.00;;;;;21.43;48.11;100294.38;113023;1242;18979;-75
2022/01/08 10:58:52;;;;;;;;;43.50;33.50;;;;;21.43;48.05;100292.33;112978;1242;19003;-74
2022/01/08 11:01:18;;;;;;;;;39.67;34.33;;;;;21.42;47.47;100296.27;113017;1242;19988;-76
2022/01/08 11:03:44;;;;;;;;;36.00;34.00;;;;;21.42;47.73;100290.64;112863;1242;22256;-73
2022/01/08 11:06:10;;;;;;;;;41.00;36.00;;;;;21.44;47.79;100291.24;112852;1242;18528;-73
2022/01/08 11:08:36;;;;;;;;;39.00;35.00;;;;;21.49;47.71;100290.85;112959;1242;19879;-76
2022/01/08 11:11:02;;;;;;;;;36.00;31.67;;;;;21.54;47.66;100289.23;112981;1242;18900;-76
2022/01/08 11:13:28;;;;;;;;;44.00;38.67;;;;;21.58;48.18;100285.19;112963;1242;18881;-76
2022/01/08 11:15:54;;;;;;;;;41.00;33.00;;;;;21.60;48.31;100276.75;112917;1242;19177;-73